Time;durP1;ratioP1;P1;durP2;ratioP2;P2;SDS_P1;SDS_P2;PMS_P1;PMS_P2;Temp;Humidity;BMP_temperature;BMP_pressure;BME280_temperature;BME280_humidity;BME280_pressure;Samples;Min_cycle;Max_cycle;Signal;HPM_P1;HPM_P2
2021/11/26 00:01:49;;;;;;;31.57;20.47;;;7.40;99.90;;;;;;6192380;23;20788;-86
2021/11/26 00:04:15;;;;;;;31.43;19.80;;;7.40;99.90;;;;;;6218765;23;20458;-95
2021/11/26 00:06:41;;;;;;;28.83;19.42;;;7.40;99.90;;;;;;6198720;23;20150;-94
2021/11/26 00:09:06;;;;;;;31.40;19.40;;;7.40;99.90;;;;;;6195589;23;20239;-86
2021/11/26 00:11:32;;;;;;;29.80;18.50;;;7.40;99.90;;;;;;6193466;23;20440;-92
2021/11/26 00:14:07;;;;;;;34.63;19.37;;;7.40;99.90;;;;;;6192532;23;20182;-95
2021/11/26 00:16:40;;;;;;;25.92;16.90;;;7.30;99.90;;;;;;6192642;23;20409;-94
2021/11/26 00:19:07;;;;;;;28.00;17.50;;;7.20;99.90;;;;;;6192208;23;20212;-86
2021/11/26 00:21:34;;;;;;;30.85;19.75;;;7.20;99.90;;;;;;6193990;23;20158;-87
2021/11/26 00:24:01;;;;;;;32.67;18.38;;;7.20;99.90;;;;;;6192557;23;20186;-95
2021/11/26 00:26:27;;;;;;;32.90;18.80;;;7.20;99.90;;;;;;6192620;23;20188;-93
2021/11/26 00:28:53;;;;;;;30.15;19.20;;;7.10;99.90;;;;;;6195361;23;20599;-87
2021/11/26 00:31:19;;;;;;;28.27;18.73;;;7.10;99.90;;;;;;6192461;23;20161;-86
2021/11/26 00:33:44;;;;;;;32.83;20.03;;;7.10;99.90;;;;;;6192454;23;20781;-95
2021/11/26 00:36:10;;;;;;;36.73;23.17;;;7.10;99.90;;;;;;6192544;23;20892;-93
2021/11/26 00:38:36;;;;;;;37.03;23.10;;;7.10;99.90;;;;;;6218935;23;20181;-94
2021/11/26 00:41:02;;;;;;;41.27;26.73;;;7.10;99.90;;;;;;6218183;23;20146;-87
2021/11/26 00:43:29;;;;;;;36.10;23.37;;;7.10;99.90;;;;;;6213829;23;20205;-95
2021/11/26 00:45:55;;;;;;;33.42;21.85;;;7.00;99.90;;;;;;6251502;22;20422;-94
2021/11/26 00:48:21;;;;;;;29.50;18.27;;;7.10;99.90;;;;;;6247673;23;20185;-86
2021/11/26 00:50:47;;;;;;;27.20;19.20;;;7.10;99.90;;;;;;6248690;22;20337;-88
2021/11/26 00:53:12;;;;;;;34.80;19.33;;;7.10;99.90;;;;;;6247520;22;20942;-87
2021/11/26 00:55:39;;;;;;;51.87;29.30;;;7.00;99.90;;;;;;6251213;22;20199;-91
2021/11/26 00:58:05;;;;;;;30.17;19.27;;;7.10;99.90;;;;;;6247056;22;20191;-87
2021/11/26 01:00:31;;;;;;;30.33;18.30;;;7.10;99.90;;;;;;6247345;22;20187;-86
2021/11/26 01:02:58;;;;;;;32.13;18.30;;;7.10;99.90;;;;;;6248868;22;20410;-95
2021/11/26 01:05:23;;;;;;;28.95;18.52;;;7.00;99.90;;;;;;6247230;22;20150;-87
2021/11/26 01:07:49;;;;;;;31.93;19.07;;;7.00;99.90;;;;;;6251788;22;20195;-94
2021/11/26 01:10:18;;;;;;;26.30;17.40;;;7.00;99.90;;;;;;6249159;22;20169;-89
2021/11/26 01:12:45;;;;;;;30.50;19.85;;;7.00;99.90;;;;;;6246645;22;20250;-95
2021/11/26 01:15:13;;;;;;;30.95;20.30;;;7.00;99.90;;;;;;6247121;22;20153;-94
2021/11/26 01:17:41;;;;;;;31.38;19.00;;;6.90;99.90;;;;;;6247545;22;20711;-86
2021/11/26 01:20:09;;;;;;;33.45;19.92;;;6.90;99.90;;;;;;6258623;22;20157;-87
2021/11/26 01:22:35;;;;;;;32.47;21.90;;;6.90;99.90;;;;;;6264803;22;20678;-87
2021/11/26 01:25:01;;;;;;;32.97;19.90;;;6.90;99.90;;;;;;6256160;22;20160;-94
2021/11/26 01:27:26;;;;;;;34.40;20.43;;;6.90;99.90;;;;;;6261629;22;20466;-93
2021/11/26 01:29:52;;;;;;;37.77;20.90;;;6.80;99.90;;;;;;6267789;22;20192;-95
2021/11/26 01:32:18;;;;;;;34.47;21.40;;;6.80;99.90;;;;;;6247878;22;20288;-86
2021/11/26 01:34:44;;;;;;;38.67;23.97;;;6.80;99.90;;;;;;6264932;22;20614;-90
2021/11/26 01:37:09;;;;;;;37.93;23.43;;;6.80;99.90;;;;;;6250345;22;20734;-87
2021/11/26 01:39:35;;;;;;;36.90;22.07;;;6.70;99.90;;;;;;6246762;22;20905;-90
2021/11/26 01:42:01;;;;;;;32.17;19.87;;;6.70;99.90;;;;;;6250424;22;20445;-94
2021/11/26 01:44:27;;;;;;;29.03;17.93;;;6.70;99.90;;;;;;6246834;22;20422;-86
2021/11/26 01:46:53;;;;;;;28.13;19.70;;;6.70;99.90;;;;;;6250142;22;20161;-93
2021/11/26 01:49:19;;;;;;;25.73;18.00;;;6.60;99.90;;;;;;6247407;22;20177;-95
2021/11/26 01:51:45;;;;;;;43.33;30.10;;;6.60;99.90;;;;;;6247091;22;20449;-95
2021/11/26 01:54:13;;;;;;;30.20;20.27;;;6.60;99.90;;;;;;6249252;22;20177;-87
2021/11/26 01:56:39;;;;;;;41.78;29.23;;;6.60;99.90;;;;;;6248230;22;20200;-95
2021/11/26 01:59:05;;;;;;;55.53;39.30;;;6.60;99.90;;;;;;6249304;22;20295;-95
2021/11/26 02:01:31;;;;;;;37.57;23.90;;;6.60;99.90;;;;;;6247109;22;20448;-93
2021/11/26 02:03:57;;;;;;;34.47;24.15;;;6.60;99.90;;;;;;6249392;22;20462;-86
2021/11/26 02:06:23;;;;;;;43.80;29.97;;;6.50;99.90;;;;;;6260459;22;20153;-94
2021/11/26 02:08:50;;;;;;;30.73;18.73;;;6.50;99.90;;;;;;6264123;22;20204;-95
2021/11/26 02:11:17;;;;;;;28.08;18.65;;;6.50;99.90;;;;;;6256438;22;20161;-89
2021/11/26 02:13:42;;;;;;;25.42;19.00;;;6.50;99.90;;;;;;6264871;22;20191;-87
2021/11/26 02:16:12;;;;;;;27.13;19.30;;;6.40;99.90;;;;;;6247991;22;20157;-94
2021/11/26 02:18:38;;;;;;;26.65;17.23;;;6.40;99.90;;;;;;6246231;23;20496;-86
2021/11/26 02:21:04;;;;;;;31.70;19.83;;;6.40;99.90;;;;;;6247814;22;20153;-90
2021/11/26 02:23:30;;;;;;;24.67;16.60;;;6.40;99.90;;;;;;6250883;22;20373;-86
2021/11/26 02:25:56;;;;;;;27.73;17.38;;;6.30;99.90;;;;;;6248173;22;20215;-87
2021/11/26 02:28:22;;;;;;;29.30;19.10;;;6.30;99.90;;;;;;6248188;22;20185;-94
2021/11/26 02:30:48;;;;;;;30.88;18.05;;;6.30;99.90;;;;;;6249063;22;20157;-93
2021/11/26 02:33:18;;;;;;;30.87;17.60;;;6.30;99.90;;;;;;6249869;22;20207;-87
2021/11/26 02:35:45;;;;;;;29.50;18.33;;;6.40;99.90;;;;;;6248225;22;20161;-85
2021/11/26 02:38:12;;;;;;;27.80;18.65;;;6.40;99.90;;;;;;6247919;22;20509;-87
2021/11/26 02:40:42;;;;;;;26.38;17.77;;;6.40;99.90;;;;;;6246281;22;20153;-87
2021/11/26 02:43:09;;;;;;;27.52;18.65;;;6.40;99.90;;;;;;6246098;22;20209;-95
2021/11/26 02:45:35;;;;;;;30.42;18.15;;;6.40;99.90;;;;;;6246234;22;20164;-87
2021/11/26 02:48:01;;;;;;;25.70;17.13;;;6.30;99.90;;;;;;6246315;22;20184;-93
2021/11/26 02:50:28;;;;;;;25.40;16.40;;;6.30;99.90;;;;;;6249679;22;20586;-86
2021/11/26 02:52:55;;;;;;;27.00;16.88;;;6.30;99.90;;;;;;6245897;22;20775;-86
2021/11/26 02:55:25;;;;;;;26.20;16.58;;;6.30;99.90;;;;;;6247497;22;20149;-93
2021/11/26 02:57:51;;;;;;;26.42;16.92;;;6.30;99.90;;;;;;6246069;22;20188;-95
2021/11/26 03:00:20;;;;;;;26.27;15.68;;;6.20;99.90;;;;;;6246124;22;20246;-95
2021/11/26 03:02:47;;;;;;;24.48;16.63;;;6.20;99.90;;;;;;6247485;22;20181;-94
2021/11/26 03:05:13;;;;;;;24.85;16.20;;;6.20;99.90;;;;;;6246869;22;20244;-86
2021/11/26 03:07:39;;;;;;;28.37;16.97;;;6.20;99.90;;;;;;6248532;22;20181;-95
2021/11/26 03:10:07;;;;;;;22.55;15.68;;;6.10;99.90;;;;;;6247633;22;20690;-86
2021/11/26 03:12:33;;;;;;;25.02;16.77;;;6.10;99.90;;;;;;6245870;22;20211;-94
2021/11/26 03:14:59;;;;;;;26.90;16.00;;;6.10;99.90;;;;;;6249641;22;20153;-93
2021/11/26 03:17:25;;;;;;;27.05;17.00;;;6.10;99.90;;;;;;6245640;22;20388;-95
2021/11/26 03:19:51;;;;;;;23.25;14.18;;;6.00;99.90;;;;;;6250661;22;20191;-93
2021/11/26 03:22:18;;;;;;;26.50;16.17;;;6.00;99.90;;;;;;6269765;22;20137;-88
2021/11/26 03:24:44;;;;;;;28.35;18.13;;;6.00;99.90;;;;;;6262942;22;20165;-87
2021/11/26 03:27:10;;;;;;;25.27;16.10;;;5.90;99.90;;;;;;6262343;22;20503;-94
2021/11/26 03:29:35;;;;;;;23.07;15.67;;;5.90;99.90;;;;;;6248008;22;20191;-91
2021/11/26 03:32:01;;;;;;;23.40;16.93;;;5.90;99.90;;;;;;6247960;22;20181;-86
2021/11/26 03:34:27;;;;;;;24.47;16.80;;;5.90;99.90;;;;;;6248012;22;20161;-95
2021/11/26 03:36:53;;;;;;;25.03;15.80;;;5.90;99.90;;;;;;6248275;22;20153;-88
2021/11/26 03:39:19;;;;;;;22.70;15.25;;;5.90;99.90;;;;;;6252149;22;20263;-95
2021/11/26 03:41:44;;;;;;;29.40;17.00;;;5.80;99.90;;;;;;6249374;22;20629;-94
2021/11/26 03:44:10;;;;;;;22.77;14.63;;;5.80;99.90;;;;;;6247726;22;20207;-95
2021/11/26 03:46:39;;;;;;;30.67;17.60;;;5.80;99.90;;;;;;6248517;22;20161;-95
2021/11/26 03:49:04;;;;;;;20.08;13.98;;;5.80;99.90;;;;;;6247972;23;20389;-95
2021/11/26 03:51:32;;;;;;;24.77;16.47;;;5.80;99.90;;;;;;6252338;22;20267;-87
2021/11/26 03:53:57;;;;;;;25.17;14.80;;;5.80;99.90;;;;;;6248343;22;20193;-94
2021/11/26 03:56:23;;;;;;;20.73;15.17;;;5.80;99.90;;;;;;6248009;22;20209;-92
2021/11/26 03:58:49;;;;;;;21.63;14.93;;;5.80;99.90;;;;;;6249894;22;20177;-94
2021/11/26 04:01:15;;;;;;;23.93;14.90;;;5.80;99.90;;;;;;6248837;22;20428;-86
2021/11/26 04:03:41;;;;;;;24.03;16.07;;;5.80;99.90;;;;;;6249825;22;20460;-87
2021/11/26 04:06:07;;;;;;;24.53;15.00;;;5.70;99.90;;;;;;6248108;22;20173;-93
2021/11/26 04:08:32;;;;;;;26.00;15.30;;;5.70;99.90;;;;;;6249661;22;20248;-94
2021/11/26 04:10:58;;;;;;;21.00;12.97;;;5.70;99.90;;;;;;6249201;22;20676;-92
2021/11/26 04:13:23;;;;;;;20.13;14.70;;;5.70;99.90;;;;;;6249113;22;20242;-95
2021/11/26 04:15:49;;;;;;;21.23;13.63;;;5.70;99.90;;;;;;6247987;22;20232;-87
2021/11/26 04:18:15;;;;;;;20.40;13.60;;;5.70;99.90;;;;;;6251070;22;20177;-94
2021/11/26 04:20:45;;;;;;;22.43;15.73;;;5.70;99.90;;;;;;6250058;22;20460;-94
2021/11/26 04:23:11;;;;;;;22.38;15.43;;;5.60;99.90;;;;;;6250576;22;20464;-90
2021/11/26 04:25:37;;;;;;;24.60;14.57;;;5.60;99.90;;;;;;6255083;22;20160;-88
2021/11/26 04:28:04;;;;;;;20.98;14.50;;;5.60;99.90;;;;;;6262672;22;20185;-94
2021/11/26 04:30:31;;;;;;;23.50;15.10;;;5.60;99.90;;;;;;6272197;22;20165;-87
2021/11/26 04:32:57;;;;;;;25.60;15.25;;;5.60;99.90;;;;;;6260775;22;20224;-91
2021/11/26 04:35:25;;;;;;;23.33;15.23;;;5.50;99.90;;;;;;6248965;22;20598;-88
2021/11/26 04:37:51;;;;;;;23.05;15.57;;;5.60;99.90;;;;;;6248331;22;20392;-96
2021/11/26 04:40:17;;;;;;;21.38;15.05;;;5.60;99.90;;;;;;6247062;22;20161;-94
2021/11/26 04:42:44;;;;;;;23.02;14.30;;;5.60;99.90;;;;;;6253933;22;20183;-87
2021/11/26 04:45:12;;;;;;;17.80;13.40;;;5.60;99.90;;;;;;6249776;22;20243;-87
2021/11/26 04:47:39;;;;;;;22.08;14.30;;;5.60;99.90;;;;;;6248009;22;20181;-87
2021/11/26 04:50:06;;;;;;;24.00;14.07;;;5.60;99.90;;;;;;6247607;22;20188;-87
2021/11/26 04:52:32;;;;;;;24.70;16.33;;;5.60;99.90;;;;;;6247234;22;20296;-96
2021/11/26 04:54:57;;;;;;;22.63;14.73;;;5.60;99.90;;;;;;6255595;22;20141;-94
2021/11/26 04:57:23;;;;;;;20.80;13.10;;;5.70;99.90;;;;;;6248535;22;20422;-87
2021/11/26 04:59:49;;;;;;;24.95;14.07;;;5.70;99.90;;;;;;6247477;22;20157;-95
2021/11/26 05:02:15;;;;;;;22.17;13.77;;;5.70;99.90;;;;;;6254087;22;20161;-95
2021/11/26 05:04:41;;;;;;;21.77;13.65;;;5.70;99.90;;;;;;6247731;22;20396;-95
2021/11/26 05:07:07;;;;;;;20.40;12.90;;;5.70;99.90;;;;;;6248920;22;20264;-95
2021/11/26 05:09:33;;;;;;;20.33;14.60;;;5.70;99.90;;;;;;6247344;22;20247;-88
2021/11/26 05:12:00;;;;;;;20.50;12.67;;;5.70;99.90;;;;;;6248895;22;20434;-87
2021/11/26 05:14:26;;;;;;;19.05;12.65;;;5.70;99.90;;;;;;6249610;22;20367;-95
2021/11/26 05:16:53;;;;;;;21.17;13.83;;;5.80;99.90;;;;;;6247450;22;20243;-94
2021/11/26 05:19:19;;;;;;;19.38;13.32;;;5.80;99.90;;;;;;6250665;22;20768;-87
2021/11/26 05:21:45;;;;;;;22.85;13.35;;;5.80;99.90;;;;;;6246921;22;20153;-95
2021/11/26 05:24:13;;;;;;;23.53;13.47;;;5.80;99.90;;;;;;6247444;22;20185;-96
2021/11/26 05:26:39;;;;;;;19.60;12.95;;;5.80;99.90;;;;;;6247546;22;20357;-87
2021/11/26 05:29:05;;;;;;;23.38;15.15;;;5.80;99.90;;;;;;6247522;22;20645;-96
2021/11/26 05:31:35;;;;;;;20.00;12.37;;;5.80;99.90;;;;;;6248386;22;20153;-87
2021/11/26 05:34:05;;;;;;;19.95;13.82;;;5.80;99.90;;;;;;6250546;22;20240;-95
2021/11/26 05:36:33;;;;;;;20.17;12.40;;;5.80;99.90;;;;;;6246887;23;20236;-95
2021/11/26 05:38:59;;;;;;;19.75;11.63;;;5.90;99.90;;;;;;6246610;22;20177;-88
2021/11/26 05:41:25;;;;;;;18.65;11.65;;;5.90;99.90;;;;;;6248393;22;20224;-93
2021/11/26 05:43:50;;;;;;;19.87;12.27;;;5.90;99.90;;;;;;6234899;22;20622;-94
2021/11/26 05:46:16;;;;;;;20.80;13.27;;;6.00;99.90;;;;;;6219065;23;20434;-94
2021/11/26 05:48:42;;;;;;;18.53;12.23;;;6.00;99.90;;;;;;6191770;23;20415;-96
2021/11/26 05:51:08;;;;;;;17.77;11.57;;;6.00;99.90;;;;;;6217059;23;20386;-87
2021/11/26 05:53:34;;;;;;;18.17;13.20;;;6.10;99.90;;;;;;6215493;23;20197;-96
2021/11/26 05:56:00;;;;;;;20.57;12.70;;;6.10;99.90;;;;;;6191420;23;20437;-90
2021/11/26 05:58:27;;;;;;;18.42;11.63;;;6.10;99.90;;;;;;6196718;23;20423;-90
2021/11/26 06:00:54;;;;;;;15.80;11.20;;;6.10;99.90;;;;;;6228702;23;20176;-94
2021/11/26 06:03:20;;;;;;;16.33;11.68;;;6.10;99.90;;;;;;6207310;23;20192;-87
2021/11/26 06:05:46;;;;;;;21.33;12.60;;;6.10;99.90;;;;;;6211863;23;20158;-87
2021/11/26 06:08:11;;;;;;;16.93;11.10;;;6.10;99.90;;;;;;6194733;23;20193;-95
2021/11/26 06:10:37;;;;;;;17.43;11.90;;;6.20;99.90;;;;;;6218162;23;20156;-87
2021/11/26 06:13:03;;;;;;;16.83;11.80;;;6.10;99.90;;;;;;6190820;23;20265;-87
2021/11/26 06:15:29;;;;;;;18.48;11.63;;;6.20;99.90;;;;;;6205440;23;20154;-94
2021/11/26 06:17:56;;;;;;;17.33;10.43;;;6.20;99.90;;;;;;6198017;23;20181;-95
2021/11/26 06:20:22;;;;;;;16.30;11.40;;;6.20;99.90;;;;;;6205274;23;20839;-95
2021/11/26 06:22:48;;;;;;;17.55;11.40;;;6.20;99.90;;;;;;6197623;23;20192;-94
2021/11/26 06:25:16;;;;;;;17.13;11.23;;;6.20;99.90;;;;;;6189959;23;20150;-95
2021/11/26 06:27:44;;;;;;;19.30;11.98;;;6.20;99.90;;;;;;6199556;23;20457;-94
2021/11/26 06:30:11;;;;;;;21.58;12.27;;;6.20;99.90;;;;;;6193692;23;20165;-87
2021/11/26 06:32:41;;;;;;;17.88;12.07;;;6.20;99.90;;;;;;6191185;23;20205;-95
2021/11/26 06:35:09;;;;;;;21.00;11.75;;;6.20;99.90;;;;;;6187494;23;20197;-96
2021/11/26 06:37:35;;;;;;;17.17;11.73;;;6.20;99.90;;;;;;6189499;23;20182;-96
2021/11/26 06:40:03;;;;;;;17.70;12.65;;;6.20;99.90;;;;;;6185848;23;20158;-94
2021/11/26 06:42:28;;;;;;;20.35;12.63;;;6.20;99.90;;;;;;6212674;23;20178;-87
2021/11/26 06:44:54;;;;;;;16.00;10.90;;;6.20;99.90;;;;;;6234825;23;20201;-95
2021/11/26 06:47:23;;;;;;;18.00;11.07;;;6.20;99.90;;;;;;6243321;22;20215;-94
2021/11/26 06:49:49;;;;;;;16.15;10.43;;;6.20;99.90;;;;;;6246261;22;20674;-96
2021/11/26 06:52:16;;;;;;;16.00;11.32;;;6.20;99.90;;;;;;6245584;22;20201;-87
2021/11/26 06:54:42;;;;;;;15.10;10.82;;;6.20;99.90;;;;;;6244239;22;20223;-95
2021/11/26 06:57:08;;;;;;;16.50;10.20;;;6.30;99.90;;;;;;6242424;22;20173;-87
2021/11/26 06:59:34;;;;;;;16.97;11.67;;;6.30;99.90;;;;;;6244224;23;20240;-96
2021/11/26 07:02:00;;;;;;;19.10;12.60;;;6.30;99.90;;;;;;6246411;22;20783;-87
2021/11/26 07:04:26;;;;;;;18.53;10.97;;;6.40;99.90;;;;;;6246566;22;20159;-88
2021/11/26 07:06:53;;;;;;;14.43;10.32;;;6.40;99.90;;;;;;6243969;22;20153;-88
2021/11/26 07:09:18;;;;;;;14.93;10.37;;;6.40;99.90;;;;;;6243986;22;20233;-87
2021/11/26 07:11:44;;;;;;;14.38;9.88;;;6.40;99.90;;;;;;6244361;22;20145;-88
2021/11/26 07:14:13;;;;;;;14.43;10.33;;;6.50;99.90;;;;;;6247083;22;20200;-87
2021/11/26 07:16:39;;;;;;;17.42;10.98;;;6.50;99.90;;;;;;6245960;22;20705;-94
2021/11/26 07:19:05;;;;;;;18.70;12.35;;;6.50;99.90;;;;;;6250843;22;20276;-95
2021/11/26 07:21:31;;;;;;;15.60;10.97;;;6.50;99.90;;;;;;6243267;22;20584;-88
2021/11/26 07:23:57;;;;;;;21.00;15.23;;;6.50;99.90;;;;;;6254340;22;20422;-95
2021/11/26 07:26:23;;;;;;;22.07;14.50;;;6.50;99.90;;;;;;6266045;22;20552;-87
2021/11/26 07:28:50;;;;;;;21.13;14.50;;;6.60;99.90;;;;;;6254115;22;20225;-95
2021/11/26 07:31:16;;;;;;;19.75;13.50;;;6.60;99.90;;;;;;6243425;22;20161;-95
2021/11/26 07:33:42;;;;;;;23.75;16.38;;;6.60;99.90;;;;;;6241193;22;20205;-96
2021/11/26 07:36:08;;;;;;;21.88;14.70;;;6.60;99.90;;;;;;6240056;22;20628;-88
2021/11/26 07:38:35;;;;;;;20.58;12.77;;;6.60;99.90;;;;;;6241759;22;20649;-96
2021/11/26 07:41:01;;;;;;;16.60;11.70;;;6.70;99.90;;;;;;6240202;22;20153;-87
2021/11/26 07:43:27;;;;;;;15.82;10.85;;;6.70;99.90;;;;;;6232763;22;20507;-95
2021/11/26 07:45:53;;;;;;;15.33;11.63;;;6.70;99.90;;;;;;6189282;23;20165;-94
2021/11/26 07:48:19;;;;;;;15.85;11.50;;;6.80;99.90;;;;;;6185638;23;20419;-96
2021/11/26 07:50:46;;;;;;;16.13;11.65;;;6.80;99.90;;;;;;6190163;23;20165;-96
2021/11/26 07:53:11;;;;;;;15.82;11.20;;;6.90;99.90;;;;;;6191888;23;20205;-91
2021/11/26 07:55:37;;;;;;;17.23;11.40;;;6.90;99.90;;;;;;6188054;23;20154;-94
2021/11/26 07:58:06;;;;;;;15.30;9.90;;;7.00;99.90;;;;;;6185410;23;20201;-88
2021/11/26 08:00:32;;;;;;;15.38;11.10;;;7.00;99.90;;;;;;6183978;23;20506;-95
2021/11/26 08:03:01;;;;;;;21.13;13.33;;;7.10;99.90;;;;;;6213713;23;20512;-96
2021/11/26 08:05:28;;;;;;;16.95;12.50;;;7.20;99.90;;;;;;6186455;23;20365;-96
2021/11/26 08:07:54;;;;;;;17.45;10.77;;;7.20;99.90;;;;;;6184715;23;20187;-88
2021/11/26 08:10:20;;;;;;;15.17;11.47;;;7.30;99.90;;;;;;6213558;23;20237;-87
2021/11/26 08:12:45;;;;;;;13.53;10.50;;;7.30;99.90;;;;;;6187571;23;20549;-88
2021/11/26 08:15:14;;;;;;;17.80;11.87;;;7.40;99.90;;;;;;6216187;23;20161;-94
2021/11/26 08:17:39;;;;;;;15.57;10.75;;;7.40;99.90;;;;;;6192586;23;20878;-96
2021/11/26 08:20:06;;;;;;;16.87;11.53;;;7.50;99.90;;;;;;6195317;23;20200;-95
2021/11/26 08:22:32;;;;;;;16.50;11.85;;;7.50;99.90;;;;;;6189537;23;20268;-95
2021/11/26 08:24:58;;;;;;;18.05;11.98;;;7.50;99.90;;;;;;6217085;23;20154;-95
2021/11/26 08:27:24;;;;;;;19.67;11.30;;;7.60;99.90;;;;;;6189283;23;20186;-96
2021/11/26 08:29:52;;;;;;;17.00;10.70;;;7.60;99.90;;;;;;6191857;23;20158;-95
2021/11/26 08:32:18;;;;;;;17.33;11.45;;;7.70;99.90;;;;;;6189364;23;20460;-86
2021/11/26 08:34:44;;;;;;;15.83;10.80;;;7.70;99.90;;;;;;6193482;23;20154;-89
2021/11/26 08:37:10;;;;;;;14.90;10.47;;;7.80;99.90;;;;;;6188382;23;20162;-95
2021/11/26 08:39:36;;;;;;;16.10;10.45;;;7.80;99.90;;;;;;6192181;23;20166;-88
2021/11/26 08:42:02;;;;;;;13.85;10.20;;;7.90;99.90;;;;;;6220033;23;20276;-96
2021/11/26 08:44:29;;;;;;;23.65;19.27;;;7.90;99.90;;;;;;6221086;23;20660;-96
2021/11/26 08:46:56;;;;;;;30.70;26.27;;;7.90;99.90;;;;;;6216892;23;20154;-87
2021/11/26 08:49:22;;;;;;;18.15;14.35;;;8.00;99.90;;;;;;6189119;23;20174;-96
2021/11/26 08:51:48;;;;;;;16.73;12.03;;;8.00;99.90;;;;;;6191898;23;20241;-88
2021/11/26 08:54:14;;;;;;;19.67;15.93;;;8.00;99.90;;;;;;6215323;23;20488;-88
2021/11/26 08:56:42;;;;;;;13.90;10.30;;;8.00;99.90;;;;;;6187360;23;20153;-94
2021/11/26 08:59:08;;;;;;;12.23;10.20;;;8.10;99.90;;;;;;6189491;23;20422;-96
2021/11/26 09:01:34;;;;;;;16.05;11.18;;;8.10;99.90;;;;;;6189838;23;20503;-88
2021/11/26 09:04:07;;;;;;;16.70;12.07;;;8.10;99.90;;;;;;6187864;23;20185;-96
2021/11/26 09:06:38;;;;;;;13.23;10.55;;;8.20;99.90;;;;;;6197884;23;20369;-96
2021/11/26 09:09:05;;;;;;;14.55;10.82;;;8.30;99.90;;;;;;6191127;23;20189;-95
2021/11/26 09:11:31;;;;;;;13.35;11.70;;;8.30;99.90;;;;;;6189506;23;20161;-89
2021/11/26 09:13:57;;;;;;;12.87;7.97;;;8.30;99.90;;;;;;6216281;23;20225;-88
2021/11/26 09:16:23;;;;;;;14.05;9.57;;;8.40;99.90;;;;;;6215164;23;20154;-88
2021/11/26 09:18:49;;;;;;;13.27;9.05;;;8.40;99.90;;;;;;6192939;23;20193;-88
2021/11/26 09:21:15;;;;;;;13.47;11.10;;;8.50;99.90;;;;;;6189995;23;20157;-95
2021/11/26 09:23:41;;;;;;;14.40;11.23;;;8.50;99.90;;;;;;6208809;23;20386;-89
2021/11/26 09:26:08;;;;;;;14.23;11.55;;;8.50;99.90;;;;;;6195518;23;20185;-96
2021/11/26 09:28:35;;;;;;;14.70;11.30;;;8.50;99.90;;;;;;6192059;22;20186;-95
2021/11/26 09:31:01;;;;;;;14.00;9.07;;;8.60;99.90;;;;;;6197972;22;20153;-92
2021/11/26 09:33:34;;;;;;;13.45;10.90;;;8.60;99.90;;;;;;6198020;23;20458;-96
2021/11/26 09:36:01;;;;;;;13.80;10.50;;;8.60;99.90;;;;;;6191578;23;20309;-95
2021/11/26 09:38:27;;;;;;;13.98;11.13;;;8.70;99.90;;;;;;6216840;23;20185;-88
2021/11/26 09:40:53;;;;;;;11.00;9.40;;;8.70;99.90;;;;;;6190692;23;20161;-96
2021/11/26 09:43:19;;;;;;;12.37;10.17;;;8.70;99.90;;;;;;6219718;23;20433;-89
2021/11/26 09:45:45;;;;;;;16.00;11.43;;;8.70;99.90;;;;;;6192602;23;20383;-95
2021/11/26 09:48:11;;;;;;;13.10;10.00;;;8.80;99.90;;;;;;6192580;23;20448;-88
2021/11/26 09:50:37;;;;;;;13.87;9.60;;;8.80;99.90;;;;;;6191485;23;20361;-88
2021/11/26 09:53:25;;;;;;;15.35;11.35;;;8.80;99.90;;;;;;6190929;23;20236;-96
2021/11/26 09:55:56;;;;;;;15.75;10.55;;;8.90;99.90;;;;;;6190276;23;20592;-89
2021/11/26 09:58:24;;;;;;;15.23;11.35;;;8.90;99.90;;;;;;6211610;23;20185;-90
2021/11/26 10:00:52;;;;;;;14.88;10.77;;;9.00;99.90;;;;;;6190679;23;20489;-90
2021/11/26 10:03:18;;;;;;;13.20;10.02;;;9.00;99.90;;;;;;6193019;23;20554;-90
2021/11/26 10:05:47;;;;;;;17.00;11.20;;;9.00;99.90;;;;;;6213656;23;20458;-88
2021/11/26 10:08:22;;;;;;;14.48;11.05;;;9.00;99.90;;;;;;6205120;22;20186;-95
2021/11/26 10:10:47;;;;;;;16.88;10.45;;;9.00;99.90;;;;;;6203745;23;20559;-94
2021/11/26 10:13:19;;;;;;;12.23;9.40;;;9.00;99.90;;;;;;6214546;23;20251;-95
2021/11/26 10:15:50;;;;;;;15.90;10.40;;;9.10;99.90;;;;;;6224058;22;20142;-87
2021/11/26 10:18:23;;;;;;;16.00;11.73;;;9.10;99.90;;;;;;6199799;23;20189;-87
2021/11/26 10:21:01;;;;;;;15.27;11.15;;;9.10;99.90;;;;;;6222178;23;20142;-87
2021/11/26 10:23:49;;;;;;;15.32;10.90;;;9.10;99.90;;;;;;6217059;23;20662;-94
2021/11/26 10:26:25;;;;;;;17.67;12.23;;;9.20;99.90;;;;;;6221807;22;20173;-87
2021/11/26 10:28:55;;;;;;;15.55;11.02;;;9.20;99.90;;;;;;6185829;23;20181;-88
2021/11/26 10:31:27;;;;;;;14.18;11.05;;;9.20;99.90;;;;;;6187792;23;20233;-95
2021/11/26 10:33:56;;;;;;;15.65;12.55;;;9.20;99.90;;;;;;6189641;23;20205;-88
2021/11/26 10:36:24;;;;;;;19.55;12.98;;;9.20;99.90;;;;;;6192521;23;20157;-94
2021/11/26 10:38:50;;;;;;;17.10;10.73;;;9.10;99.90;;;;;;6194691;23;20387;-88
2021/11/26 10:41:25;;;;;;;14.17;10.90;;;9.10;99.90;;;;;;6189609;23;20187;-95
2021/11/26 10:44:04;;;;;;;13.25;10.13;;;9.00;99.90;;;;;;6237347;22;20892;-88
2021/11/26 11:00:10;;;;;;;17.05;11.27;;;8.60;99.90;;;;;;6265314;22;20167;-96
2021/11/26 11:02:40;;;;;;;17.40;12.15;;;8.50;99.90;;;;;;6237274;22;20272;-88
2021/11/26 11:05:30;;;;;;;15.73;11.23;;;8.50;99.90;;;;;;6255663;23;20153;-89
2021/11/26 11:07:57;;;;;;;17.83;12.85;;;8.40;99.90;;;;;;6221480;22;20519;-88
2021/11/26 11:10:26;;;;;;;16.77;10.98;;;8.40;99.90;;;;;;6239816;22;20157;-88
2021/11/26 11:12:52;;;;;;;17.27;12.95;;;8.30;99.90;;;;;;6241795;22;20208;-88
2021/11/26 11:15:21;;;;;;;19.27;13.48;;;8.30;99.90;;;;;;6240328;22;20486;-95
2021/11/26 11:17:47;;;;;;;20.45;14.18;;;8.30;99.90;;;;;;6237862;23;20710;-88
2021/11/26 11:20:16;;;;;;;24.48;12.88;;;8.20;99.90;;;;;;6240382;23;20157;-95
2021/11/26 11:22:43;;;;;;;17.70;12.48;;;8.20;99.90;;;;;;6245018;22;20191;-95
2021/11/26 11:25:11;;;;;;;21.45;13.20;;;8.10;99.90;;;;;;6247586;22;20157;-94
2021/11/26 11:27:38;;;;;;;18.65;13.52;;;8.10;99.90;;;;;;6242183;22;20572;-88
2021/11/26 11:30:07;;;;;;;23.80;15.95;;;8.10;99.90;;;;;;6240931;22;20545;-87
2021/11/26 11:32:35;;;;;;;25.25;17.27;;;8.00;99.90;;;;;;6240106;22;20193;-92
2021/11/26 11:35:01;;;;;;;22.52;14.25;;;8.00;99.90;;;;;;6241240;22;20617;-87
2021/11/26 11:37:28;;;;;;;25.33;15.48;;;8.00;99.90;;;;;;6242858;22;20175;-95
2021/11/26 11:40:01;;;;;;;23.92;15.00;;;8.00;99.90;;;;;;6246920;22;20834;-94
2021/11/26 11:42:39;;;;;;;27.45;16.10;;;7.90;99.90;;;;;;6264709;22;20177;-95
2021/11/26 11:45:12;;;;;;;22.77;13.88;;;7.90;99.90;;;;;;6219390;23;20205;-89
2021/11/26 11:47:43;;;;;;;28.38;15.90;;;7.90;99.90;;;;;;6243093;23;20243;-87
2021/11/26 11:50:14;;;;;;;26.23;17.05;;;7.80;99.90;;;;;;6244593;22;20567;-96
2021/11/26 11:52:50;;;;;;;30.50;17.05;;;7.80;99.90;;;;;;6244355;22;20180;-89
2021/11/26 11:55:30;;;;;;;27.35;18.50;;;7.80;99.90;;;;;;6245927;22;20149;-88
2021/11/26 11:58:22;;;;;;;28.17;17.25;;;7.70;99.90;;;;;;6243165;23;20204;-96
2021/11/26 12:00:52;;;;;;;25.90;15.23;;;7.70;99.90;;;;;;6245271;23;20217;-96
2021/11/26 12:03:24;;;;;;;27.08;17.70;;;7.80;99.90;;;;;;6245432;23;20169;-90
2021/11/26 12:06:05;;;;;;;22.48;17.60;;;7.80;99.90;;;;;;6249339;23;20161;-96
2021/11/26 12:08:46;;;;;;;20.50;15.32;;;7.80;99.90;;;;;;6260503;22;20231;-91
2021/11/26 12:11:23;;;;;;;21.20;15.32;;;7.80;99.90;;;;;;6249799;22;20153;-96
2021/11/26 12:13:59;;;;;;;21.45;15.15;;;7.80;99.90;;;;;;6247045;23;20258;-90
2021/11/26 12:16:25;;;;;;;18.20;12.25;;;7.80;99.90;;;;;;6247814;22;20148;-95
2021/11/26 12:18:53;;;;;;;22.97;15.70;;;7.80;99.90;;;;;;6248809;22;20217;-90
2021/11/26 12:21:33;;;;;;;19.23;13.95;;;7.80;99.90;;;;;;6249222;22;20357;-96
2021/11/26 12:24:14;;;;;;;20.38;13.65;;;7.70;99.90;;;;;;6251858;23;20203;-96
2021/11/26 12:26:52;;;;;;;20.83;15.85;;;7.60;99.90;;;;;;6245984;23;20153;-90
2021/11/26 12:29:21;;;;;;;20.15;13.02;;;7.60;99.90;;;;;;6254968;22;20185;-96
2021/11/26 12:31:48;;;;;;;18.75;13.55;;;7.60;99.90;;;;;;6247157;22;20157;-94
2021/11/26 12:34:19;;;;;;;25.38;14.52;;;7.60;99.90;;;;;;6253691;22;20193;-96
2021/11/26 12:36:49;;;;;;;21.95;13.13;;;7.60;99.90;;;;;;6246062;23;20153;-96
2021/11/26 12:39:22;;;;;;;20.30;14.23;;;7.60;99.90;;;;;;6241001;22;20177;-96
2021/11/26 12:41:50;;;;;;;21.00;13.90;;;7.60;99.90;;;;;;6244148;23;20157;-96
2021/11/26 12:44:19;;;;;;;22.45;14.43;;;7.60;99.90;;;;;;6240886;22;20484;-89
2021/11/26 12:46:46;;;;;;;19.40;14.18;;;7.60;99.90;;;;;;6243178;23;20633;-89
2021/11/26 12:52:00;;;;;;;24.08;16.15;;;7.60;99.90;;;;;;6254172;22;20141;-96
2021/11/26 12:54:37;;;;;;;22.00;16.58;;;7.50;99.90;;;;;;6243250;23;20165;-96
2021/11/26 12:57:06;;;;;;;20.55;15.20;;;7.50;99.90;;;;;;6247360;23;20168;-96